createdAt,value
2022-09-22T00:01:36.914Z,95405.84
2022-09-22T00:04:07.674Z,95433.38
2022-09-22T00:06:39.067Z,95432.88
2022-09-22T00:09:12.228Z,95428.91
2022-09-22T00:11:43.269Z,95419.34
2022-09-22T00:14:14.780Z,95431.00
2022-09-22T00:16:46.019Z,95437.00
2022-09-22T00:19:16.121Z,95439.66
2022-09-22T00:21:44.392Z,95424.28
2022-09-22T00:24:14.862Z,95428.59
2022-09-22T00:26:43.334Z,95423.59
2022-09-22T00:29:12.321Z,95426.97
2022-09-22T00:31:42.777Z,95429.16
2022-09-22T00:34:16.251Z,95433.94
2022-09-22T00:36:44.593Z,95427.78
2022-09-22T00:39:14.982Z,95432.50
2022-09-22T00:41:45.593Z,95415.38
2022-09-22T00:44:44.380Z,95431.19
2022-09-22T00:47:30.561Z,95428.06
2022-09-22T00:50:04.773Z,95418.50
2022-09-22T00:52:40.353Z,95423.59
2022-09-22T00:55:14.692Z,95427.03
2022-09-22T00:57:46.075Z,95418.56
2022-09-22T01:00:15.301Z,95425.19
2022-09-22T01:02:46.446Z,95425.81
2022-09-22T01:05:14.756Z,95430.66
2022-09-22T01:07:44.566Z,95427.47
2022-09-22T01:10:14.275Z,95430.72
2022-09-22T01:12:53.761Z,95434.47
2022-09-22T01:15:31.111Z,95439.94
2022-09-22T01:18:18.200Z,95435.88
2022-09-22T01:21:20.493Z,95423.72
2022-09-22T01:24:20.360Z,95427.84
2022-09-22T01:27:22.075Z,95422.53
2022-09-22T01:30:26.267Z,95428.88
2022-09-22T01:33:19.131Z,95401.56
2022-09-22T01:35:58.850Z,95430.88
2022-09-22T01:38:33.464Z,95445.88
2022-09-22T01:41:06.622Z,95450.75
2022-09-22T01:43:41.890Z,95448.69
2022-09-22T01:46:16.843Z,95439.53
2022-09-22T01:48:50.316Z,95429.31
2022-09-22T01:51:23.080Z,95444.00
2022-09-22T01:53:56.194Z,95443.59
2022-09-22T01:56:27.027Z,95447.09
2022-09-22T01:59:00.128Z,95443.22
2022-09-22T02:01:34.645Z,95450.88
2022-09-22T02:04:08.771Z,95447.97
2022-09-22T02:06:42.029Z,95439.78
2022-09-22T02:09:13.158Z,95439.31
2022-09-22T02:11:41.662Z,95432.50
2022-09-22T02:14:10.355Z,95442.56
2022-09-22T02:16:40.158Z,95441.34
2022-09-22T02:19:13.772Z,95438.81
2022-09-22T02:21:45.704Z,95442.22
2022-09-22T02:24:31.662Z,95435.41
2022-09-22T02:27:03.233Z,95439.41
2022-09-22T02:29:35.406Z,95438.31
2022-09-22T02:32:10.789Z,95433.03
2022-09-22T02:34:39.711Z,95430.13
2022-09-22T02:37:18.435Z,95441.81
2022-09-22T02:39:54.933Z,95437.00
2022-09-22T02:42:29.902Z,95435.06
2022-09-22T02:45:04.862Z,95443.16
2022-09-22T02:47:39.700Z,95450.31
2022-09-22T02:50:12.017Z,95456.53
2022-09-22T02:52:41.814Z,95445.84
2022-09-22T02:55:12.201Z,95441.63
2022-09-22T02:57:40.423Z,95447.38
2022-09-22T03:00:09.673Z,95456.41
2022-09-22T03:02:39.336Z,95456.03
2022-09-22T03:05:08.384Z,95448.94
2022-09-22T03:07:36.849Z,95453.97
2022-09-22T03:10:05.837Z,95449.44
2022-09-22T03:12:34.169Z,95457.31
2022-09-22T03:15:02.585Z,95452.88
2022-09-22T03:17:32.251Z,95448.72
2022-09-22T03:20:02.127Z,95449.25
2022-09-22T03:22:30.340Z,95448.19
2022-09-22T03:24:58.501Z,95469.94
2022-09-22T03:27:27.757Z,95473.75
2022-09-22T03:29:56.326Z,95473.03
2022-09-22T03:32:24.616Z,95471.38
2022-09-22T03:34:52.889Z,95467.66
2022-09-22T03:37:22.537Z,95470.28
2022-09-22T03:39:50.744Z,95463.66
2022-09-22T03:42:19.069Z,95457.41
2022-09-22T03:44:47.323Z,95466.53
2022-09-22T03:47:15.575Z,95471.25
2022-09-22T03:49:43.847Z,95469.03
2022-09-22T03:52:12.003Z,95466.81
2022-09-22T03:54:41.729Z,95464.78
2022-09-22T03:57:10.103Z,95474.63
2022-09-22T03:59:38.318Z,95464.13
2022-09-22T04:02:06.880Z,95466.94
2022-09-22T04:04:35.148Z,95467.28
2022-09-22T04:07:07.162Z,95466.81
2022-09-22T04:09:35.992Z,95452.16
2022-09-22T04:12:06.057Z,95459.66
2022-09-22T04:14:34.320Z,95460.97
2022-09-22T04:17:04.198Z,95477.47
2022-09-22T04:19:32.979Z,95459.16
2022-09-22T04:22:01.213Z,95480.72
2022-09-22T04:24:32.262Z,95477.31
2022-09-22T04:27:19.996Z,95467.34
2022-09-22T04:29:50.546Z,95461.97
2022-09-22T04:32:19.505Z,95462.19
2022-09-22T04:34:47.923Z,95451.09
2022-09-22T04:37:16.494Z,95466.53
2022-09-22T04:39:44.702Z,95463.25
2022-09-22T04:42:12.988Z,95471.53
2022-09-22T04:44:41.236Z,95467.34
2022-09-22T04:47:10.892Z,95466.75
2022-09-22T04:49:39.203Z,95468.28
2022-09-22T04:52:07.890Z,95474.19
2022-09-22T04:54:36.224Z,95477.66
2022-09-22T04:57:05.017Z,95472.63
2022-09-22T04:59:35.626Z,95411.13
2022-09-22T05:02:04.405Z,95463.56
2022-09-22T05:04:44.757Z,95296.88
2022-09-22T05:07:13.273Z,95337.88
2022-09-22T05:09:41.766Z,95490.38
2022-09-22T05:12:10.171Z,95132.78
2022-09-22T05:14:40.695Z,95466.53
2022-09-22T05:17:09.059Z,95457.00
2022-09-22T05:19:39.014Z,95379.63
2022-09-22T05:22:07.264Z,95457.50
2022-09-22T05:24:35.630Z,95462.47
2022-09-22T05:27:04.849Z,95453.50
2022-09-22T05:29:33.115Z,95457.22
2022-09-22T05:32:01.486Z,95453.53
2022-09-22T05:34:29.780Z,95456.97
2022-09-22T05:36:59.663Z,95450.88
2022-09-22T05:39:27.845Z,95457.25
2022-09-22T05:41:56.051Z,95451.09
2022-09-22T05:44:24.768Z,95460.34
2022-09-22T05:46:53.010Z,95464.28
2022-09-22T05:49:21.252Z,95469.34
2022-09-22T05:51:52.270Z,95466.66
2022-09-22T05:54:23.442Z,95460.94
2022-09-22T05:56:51.923Z,95408.97
2022-09-22T05:59:20.108Z,95456.50
2022-09-22T06:01:48.707Z,95444.00
2022-09-22T06:04:17.243Z,95450.84
2022-09-22T06:06:45.545Z,95453.81
2022-09-22T06:09:13.792Z,95449.22
2022-09-22T06:11:43.420Z,95452.50
2022-09-22T06:14:11.608Z,95449.34
2022-09-22T06:16:40.243Z,95450.63
2022-09-22T06:19:08.492Z,95456.66
2022-09-22T06:21:36.756Z,95449.47
2022-09-22T06:24:05.273Z,95440.59
2022-09-22T06:26:33.625Z,95440.06
2022-09-22T06:29:03.328Z,95443.66
2022-09-22T06:31:31.604Z,95441.53
2022-09-22T06:34:01.488Z,95444.78
2022-09-22T06:36:31.780Z,95445.19
2022-09-22T06:39:00.174Z,95438.06
2022-09-22T06:41:29.351Z,95444.19
2022-09-22T06:43:57.609Z,95451.56
2022-09-22T06:46:28.865Z,95434.03
2022-09-22T06:48:57.992Z,95438.16
2022-09-22T06:51:26.960Z,95273.41
2022-09-22T06:53:55.663Z,95232.34
2022-09-22T06:56:25.138Z,95443.44
2022-09-22T06:59:18.273Z,95424.69
2022-09-22T07:01:45.091Z,95430.59
2022-09-22T07:04:14.504Z,95433.25
2022-09-22T07:06:43.458Z,95429.78
2022-09-22T07:09:12.482Z,95426.94
2022-09-22T07:11:40.799Z,95432.03
2022-09-22T07:14:11.975Z,95430.81
2022-09-22T07:16:41.050Z,95438.44
2022-09-22T07:19:10.740Z,95444.00
2022-09-22T07:21:40.518Z,95387.81
2022-09-22T07:24:09.452Z,95444.06
2022-09-22T07:26:39.725Z,95434.56
2022-09-22T07:29:11.836Z,95427.31
2022-09-22T07:31:41.605Z,95435.44
2022-09-22T07:34:11.739Z,95441.78
2022-09-22T07:36:40.156Z,95447.06
2022-09-22T07:39:11.231Z,95439.81
2022-09-22T07:41:43.509Z,95445.66
2022-09-22T07:44:30.660Z,95460.75
2022-09-22T07:46:59.482Z,95436.41
2022-09-22T07:49:29.455Z,95431.00
2022-09-22T07:51:58.439Z,95435.19
2022-09-22T07:54:28.168Z,95439.19
2022-09-22T07:56:58.749Z,95418.94
2022-09-22T07:59:27.699Z,95425.41
2022-09-22T08:01:56.207Z,95381.34
2022-09-22T08:04:26.766Z,95424.38
2022-09-22T08:06:56.733Z,95421.47
2022-09-22T08:09:26.391Z,95414.00
2022-09-22T08:11:56.144Z,95420.34
2022-09-22T08:14:24.533Z,95374.50
2022-09-22T08:16:54.144Z,95406.75
2022-09-22T08:19:24.938Z,95361.16
2022-09-22T08:21:55.054Z,95399.84
2022-09-22T08:24:24.753Z,95405.38
2022-09-22T08:26:55.921Z,95341.28
2022-09-22T08:29:24.910Z,95359.84
2022-09-22T08:31:54.275Z,95370.34
2022-09-22T08:34:23.266Z,95393.41
2022-09-22T08:36:51.484Z,95389.06
2022-09-22T08:39:20.319Z,95384.84
2022-09-22T08:42:09.542Z,95383.75
2022-09-22T08:44:43.481Z,95365.50
2022-09-22T08:47:38.678Z,95364.06
2022-09-22T08:50:37.649Z,95373.47
2022-09-22T08:53:10.360Z,95363.66
2022-09-22T08:55:43.255Z,95361.94
2022-09-22T08:58:28.419Z,95363.78
2022-09-22T09:01:06.716Z,95358.66
2022-09-22T09:03:51.133Z,95357.84
2022-09-22T09:06:26.971Z,95360.00
2022-09-22T09:09:24.718Z,95352.31
2022-09-22T09:12:17.475Z,95351.63
2022-09-22T09:15:02.796Z,95352.34
2022-09-22T09:17:34.035Z,95347.88
2022-09-22T09:20:11.564Z,95353.47
2022-09-22T09:22:46.434Z,95352.31
2022-09-22T09:25:24.324Z,95346.53
2022-09-22T09:27:57.324Z,95345.09
2022-09-22T09:30:27.297Z,95347.50
2022-09-22T09:32:59.285Z,95339.09
2022-09-22T09:35:39.768Z,95336.50
2022-09-22T09:38:14.813Z,95323.66
2022-09-22T09:40:43.581Z,95326.38
2022-09-22T09:43:12.300Z,95328.00
2022-09-22T09:45:51.989Z,95331.63
2022-09-22T09:48:32.131Z,95331.09
2022-09-22T09:51:05.414Z,95322.25
2022-09-22T09:53:41.190Z,95308.44
2022-09-22T09:56:22.734Z,95315.41
2022-09-22T09:59:19.051Z,95319.91
2022-09-22T10:01:50.999Z,95307.66
2022-09-22T10:04:25.021Z,95319.84
2022-09-22T10:06:53.376Z,95318.28
2022-09-22T10:09:26.872Z,95320.97
2022-09-22T10:12:02.319Z,95301.28
2022-09-22T10:14:33.308Z,95302.81
2022-09-22T10:17:04.080Z,95309.09
2022-09-22T10:19:34.711Z,95309.03
2022-09-22T10:22:35.484Z,95309.03
2022-09-22T10:25:08.328Z,95305.59
2022-09-22T10:27:36.649Z,95293.88
2022-09-22T10:30:22.566Z,95287.38
2022-09-22T10:33:22.979Z,95286.56
2022-09-22T10:35:56.874Z,95287.78
2022-09-22T10:38:29.269Z,95283.03
2022-09-22T10:41:00.972Z,95281.22
2022-09-22T10:43:45.533Z,95277.47
2022-09-22T10:46:28.778Z,95118.59
2022-09-22T10:49:09.411Z,95271.63
2022-09-22T10:51:55.664Z,95277.28
2022-09-22T10:54:43.682Z,95264.94
2022-09-22T10:57:24.962Z,95270.94
2022-09-22T11:00:11.143Z,95261.78
2022-09-22T11:03:09.102Z,95262.19
2022-09-22T11:06:06.556Z,95261.81
2022-09-22T11:09:02.005Z,95261.06
2022-09-22T11:11:55.543Z,95254.44
2022-09-22T11:14:36.452Z,95262.19
2022-09-22T11:17:19.336Z,95258.13
2022-09-22T11:20:04.049Z,95254.81
2022-09-22T11:22:51.411Z,95260.28
2022-09-22T11:25:33.217Z,95247.16
2022-09-22T11:28:15.068Z,95248.56
2022-09-22T11:30:47.944Z,95246.66
2022-09-22T11:33:52.679Z,95248.97
2022-09-22T11:36:30.888Z,95236.53
2022-09-22T11:39:27.065Z,95186.88
2022-09-22T11:42:08.778Z,95224.81
2022-09-22T11:44:42.124Z,95230.03
2022-09-22T11:47:51.938Z,95226.75
2022-09-22T11:50:45.684Z,95216.56
2022-09-22T11:53:32.919Z,95223.94
2022-09-22T11:56:18.996Z,95158.25
2022-09-22T11:58:48.976Z,95206.44
2022-09-22T12:01:24.063Z,95187.28
2022-09-22T12:03:56.840Z,95207.47
2022-09-22T12:06:29.443Z,95206.16
2022-09-22T12:09:03.025Z,95208.69
2022-09-22T12:11:36.327Z,95199.69
2022-09-22T12:14:05.768Z,95193.25
2022-09-22T12:16:42.093Z,95195.66
2022-09-22T12:19:25.783Z,95198.31
2022-09-22T12:21:59.977Z,95198.63
2022-09-22T12:24:28.314Z,95186.03
2022-09-22T12:26:58.044Z,95189.53
2022-09-22T12:29:28.949Z,95197.78
2022-09-22T12:32:00.131Z,95187.28
2022-09-22T12:34:33.040Z,95193.03
2022-09-22T12:37:11.779Z,95188.94
2022-09-22T12:39:42.888Z,95196.75
2022-09-22T12:42:21.994Z,95196.25
2022-09-22T12:44:55.738Z,95180.31
2022-09-22T12:47:31.196Z,95188.94
2022-09-22T12:50:07.217Z,95180.00
2022-09-22T12:53:00.260Z,95181.97
2022-09-22T12:55:38.594Z,95183.09
2022-09-22T12:58:42.070Z,95182.38
2022-09-22T13:01:33.711Z,95182.06
2022-09-22T13:04:17.366Z,95174.53
2022-09-22T13:07:01.289Z,95172.97
2022-09-22T13:09:31.905Z,95167.13
2022-09-22T13:12:28.221Z,95156.22
2022-09-22T13:15:21.737Z,95167.88
2022-09-22T13:17:51.685Z,95158.16
2022-09-22T13:20:24.120Z,95167.06
2022-09-22T13:22:52.709Z,95158.81
2022-09-22T13:25:27.033Z,95165.97
2022-09-22T13:28:20.693Z,95163.03
2022-09-22T13:31:03.555Z,95151.00
2022-09-22T13:33:36.731Z,95164.13
2022-09-22T13:36:08.606Z,95162.72
2022-09-22T13:38:39.703Z,95164.44
2022-09-22T13:41:12.692Z,95172.59
2022-09-22T13:43:43.668Z,95112.91
2022-09-22T13:46:21.212Z,95173.47
2022-09-22T13:48:51.357Z,95172.91
2022-09-22T13:51:19.659Z,95162.25
2022-09-22T13:53:52.704Z,95167.22
2022-09-22T13:56:23.624Z,95166.81
2022-09-22T13:58:55.683Z,95157.00
2022-09-22T14:01:27.094Z,95168.13
2022-09-22T14:03:56.421Z,95170.06
2022-09-22T14:06:27.759Z,95166.59
2022-09-22T14:08:57.216Z,95168.56
2022-09-22T14:11:29.143Z,95168.34
2022-09-22T14:14:00.004Z,95167.94
2022-09-22T14:16:35.855Z,95169.31
2022-09-22T14:19:09.046Z,95179.22
2022-09-22T14:21:44.346Z,95185.53
2022-09-22T14:24:15.473Z,95184.59
2022-09-22T14:26:49.280Z,95188.38
2022-09-22T14:29:20.696Z,95191.63
2022-09-22T14:31:56.334Z,95198.16
2022-09-22T14:34:33.017Z,95203.47
2022-09-22T14:37:05.600Z,95214.91
2022-09-22T14:39:43.082Z,95211.56
2022-09-22T14:42:20.842Z,95158.06
2022-09-22T14:44:53.843Z,95228.53
2022-09-22T14:47:26.505Z,95183.13
2022-09-22T14:50:20.681Z,95236.97
2022-09-22T14:52:56.970Z,94784.13
2022-09-22T14:55:34.675Z,95216.22
2022-09-22T14:58:07.164Z,95247.97
2022-09-22T15:00:59.225Z,95251.97
2022-09-22T15:03:31.214Z,95254.69
2022-09-22T15:06:07.871Z,95254.34
2022-09-22T15:08:37.460Z,95237.69
2022-09-22T15:11:07.280Z,95257.13
2022-09-22T15:13:40.933Z,95257.25
2022-09-22T15:16:40.553Z,95243.94
2022-09-22T15:19:14.431Z,95262.38
2022-09-22T15:21:46.318Z,95220.63
2022-09-22T15:24:16.361Z,95269.56
2022-09-22T15:26:47.075Z,95272.63
2022-09-22T15:29:17.532Z,95272.50
2022-09-22T15:31:46.208Z,95235.63
2022-09-22T15:34:16.801Z,95201.03
2022-09-22T15:36:48.952Z,95298.44
2022-09-22T15:39:22.012Z,95121.69
2022-09-22T15:41:50.750Z,95292.66
2022-09-22T15:44:19.171Z,95289.38
2022-09-22T15:46:52.692Z,95296.81
2022-09-22T15:49:26.513Z,95299.59
2022-09-22T15:51:56.954Z,95248.75
2022-09-22T15:54:26.274Z,95292.53
2022-09-22T15:56:57.011Z,95307.00
2022-09-22T15:59:28.297Z,95300.59
2022-09-22T16:01:57.751Z,95302.63
2022-09-22T16:04:34.388Z,95312.44
2022-09-22T16:07:05.857Z,95319.56
2022-09-22T16:09:34.535Z,95314.72
2022-09-22T16:12:04.901Z,95301.00
2022-09-22T16:14:34.095Z,95233.69
2022-09-22T16:17:02.352Z,95312.84
2022-09-22T16:19:32.161Z,95317.41
2022-09-22T16:22:00.854Z,95325.81
2022-09-22T16:24:30.050Z,95097.63
2022-09-22T16:27:00.404Z,95322.84
2022-09-22T16:29:28.740Z,95322.22
2022-09-22T16:31:57.056Z,95327.63
2022-09-22T16:34:25.554Z,95327.19
2022-09-22T16:36:55.240Z,95278.44
2022-09-22T16:39:24.169Z,95330.03
2022-09-22T16:41:55.724Z,95331.28
2022-09-22T16:44:24.774Z,95318.19
2022-09-22T16:46:56.699Z,95338.50
2022-09-22T16:49:26.088Z,95322.34
2022-09-22T16:51:56.673Z,95319.06
2022-09-22T16:54:27.348Z,95343.44
2022-09-22T16:56:55.548Z,95307.34
2022-09-22T16:59:24.754Z,95357.25
2022-09-22T17:01:53.143Z,95364.22
2022-09-22T17:04:21.493Z,95361.38
2022-09-22T17:06:49.980Z,95358.72
2022-09-22T17:09:20.328Z,95367.78
2022-09-22T17:11:49.519Z,95355.59
2022-09-22T17:14:21.261Z,95367.19
2022-09-22T17:16:52.224Z,95381.56
2022-09-22T17:19:22.163Z,95385.69
2022-09-22T17:21:52.902Z,95383.50
2022-09-22T17:24:23.413Z,95393.13
2022-09-22T17:26:54.010Z,95401.78
2022-09-22T17:29:25.324Z,95397.13
2022-09-22T17:31:56.617Z,95401.19
2022-09-22T17:34:26.213Z,95403.22
2022-09-22T17:36:55.641Z,95403.97
2022-09-22T17:39:26.080Z,95418.63
2022-09-22T17:41:55.298Z,95426.34
2022-09-22T17:44:24.235Z,95414.53
2022-09-22T17:47:11.491Z,95395.81
2022-09-22T17:49:58.431Z,95423.28
2022-09-22T17:52:44.838Z,95426.63
2022-09-22T17:55:20.929Z,95421.13
2022-09-22T17:57:50.529Z,95421.22
2022-09-22T18:00:21.216Z,95419.00
2022-09-22T18:02:50.947Z,95347.50
2022-09-22T18:05:22.695Z,95431.75
2022-09-22T18:07:53.753Z,95435.22
2022-09-22T18:10:23.625Z,95435.47
2022-09-22T18:12:52.076Z,95443.75
2022-09-22T18:15:20.443Z,95451.59
2022-09-22T18:17:49.135Z,95446.25
2022-09-22T18:20:20.869Z,95450.66
2022-09-22T18:22:49.306Z,95453.94
2022-09-22T18:25:19.642Z,95455.97
2022-09-22T18:27:49.525Z,95463.50
2022-09-22T18:30:19.603Z,95464.06
2022-09-22T18:32:48.325Z,95464.59
2022-09-22T18:35:16.813Z,95444.22
2022-09-22T18:37:45.250Z,95467.47
2022-09-22T18:40:13.856Z,95433.22
2022-09-22T18:42:44.850Z,95461.22
2022-09-22T18:45:14.762Z,95457.28
2022-09-22T18:47:43.853Z,95444.16
2022-09-22T18:50:13.110Z,95456.81
2022-09-22T18:52:43.395Z,95461.66
2022-09-22T18:55:14.262Z,95469.03
2022-09-22T18:57:42.483Z,95465.63
2022-09-22T19:00:14.203Z,95469.34
2022-09-22T19:02:46.473Z,95470.94
2022-09-22T19:05:14.767Z,95465.78
2022-09-22T19:07:47.005Z,95472.88
2022-09-22T19:10:20.697Z,95481.06
2022-09-22T19:12:49.682Z,95474.41
2022-09-22T19:15:19.480Z,95471.31
2022-09-22T19:17:50.693Z,95472.09
2022-09-22T19:20:24.132Z,95440.88
2022-09-22T19:22:54.113Z,95474.53
2022-09-22T19:25:23.597Z,95483.03
2022-09-22T19:27:52.479Z,95483.13
2022-09-22T19:30:24.002Z,95485.69
2022-09-22T19:32:55.342Z,95487.03
2022-09-22T19:35:23.768Z,95490.38
2022-09-22T19:37:52.735Z,95487.78
2022-09-22T19:40:24.807Z,95493.50
2022-09-22T19:42:54.136Z,95485.63
2022-09-22T19:45:24.023Z,95482.28
2022-09-22T19:47:52.569Z,95492.97
2022-09-22T19:50:22.206Z,95486.00
2022-09-22T19:52:50.668Z,95496.81
2022-09-22T19:55:21.213Z,95477.66
2022-09-22T19:57:52.485Z,95491.44
2022-09-22T20:00:26.315Z,95499.72
2022-09-22T20:02:58.928Z,95501.63
2022-09-22T20:05:31.577Z,95500.59
2022-09-22T20:08:00.072Z,95501.56
2022-09-22T20:10:28.928Z,95506.59
2022-09-22T20:12:57.156Z,95510.63
2022-09-22T20:15:27.039Z,95510.56
2022-09-22T20:17:55.483Z,95505.03
2022-09-22T20:20:27.088Z,95509.78
2022-09-22T20:23:01.194Z,95505.34
2022-09-22T20:25:31.988Z,95502.75
2022-09-22T20:28:01.152Z,95248.13
2022-09-22T20:30:29.565Z,95510.44
2022-09-22T20:32:57.958Z,95510.44
2022-09-22T20:35:26.639Z,95508.91
2022-09-22T20:37:59.461Z,95512.50
2022-09-22T20:40:28.562Z,95519.06
2022-09-22T20:42:57.007Z,95523.13
2022-09-22T20:45:25.390Z,95498.34
2022-09-22T20:47:54.977Z,95517.75
2022-09-22T20:50:23.464Z,95527.38
2022-09-22T20:52:51.962Z,95526.75
2022-09-22T20:55:22.072Z,95525.84
2022-09-22T20:57:50.449Z,95521.31
2022-09-22T21:00:18.903Z,95523.69
2022-09-22T21:02:47.506Z,95530.78
2022-09-22T21:05:16.023Z,95536.38
2022-09-22T21:07:44.515Z,95533.25
2022-09-22T21:10:32.547Z,95520.72
2022-09-22T21:13:03.713Z,95534.72
2022-09-22T21:15:32.234Z,95525.22
2022-09-22T21:18:00.677Z,95524.22
2022-09-22T21:20:29.020Z,95524.50
2022-09-22T21:22:57.383Z,95527.75
2022-09-22T21:25:26.408Z,95528.44
2022-09-22T21:27:54.738Z,95530.94
2022-09-22T21:30:24.561Z,95519.97
2022-09-22T21:32:52.940Z,95521.44
2022-09-22T21:35:21.309Z,95466.78
2022-09-22T21:37:49.728Z,95521.59
2022-09-22T21:40:18.671Z,95521.28
2022-09-22T21:42:47.163Z,95526.91
2022-09-22T21:45:15.758Z,95523.72
2022-09-22T21:47:45.572Z,95518.94
2022-09-22T21:50:14.217Z,95520.66
2022-09-22T21:52:45.109Z,95521.47
2022-09-22T21:55:13.320Z,95518.78
2022-09-22T21:57:41.504Z,95511.94
2022-09-22T22:00:10.597Z,95517.22
2022-09-22T22:02:52.544Z,95516.53
2022-09-22T22:05:22.268Z,95502.75
2022-09-22T22:07:50.575Z,95506.44
2022-09-22T22:10:19.258Z,95503.41
2022-09-22T22:12:47.481Z,95504.31
2022-09-22T22:15:15.784Z,95505.47
2022-09-22T22:17:44.019Z,95509.81
2022-09-22T22:20:12.230Z,95506.53
2022-09-22T22:22:41.864Z,95505.09
2022-09-22T22:25:12.965Z,95501.19
2022-09-22T22:27:41.236Z,95501.13
2022-09-22T22:30:11.020Z,95499.03
2022-09-22T22:32:39.262Z,95499.84
2022-09-22T22:35:08.537Z,95501.78
2022-09-22T22:37:37.537Z,95495.72
2022-09-22T22:40:08.480Z,95498.97
2022-09-22T22:42:36.805Z,95497.16
2022-09-22T22:45:06.568Z,95498.66
2022-09-22T22:47:35.028Z,95506.13
2022-09-22T22:50:03.341Z,95497.69
2022-09-22T22:52:31.556Z,95494.03
2022-09-22T22:54:59.718Z,95499.16
2022-09-22T22:57:29.898Z,95498.72
2022-09-22T22:59:58.374Z,95497.63
2022-09-22T23:02:26.762Z,95502.91
2022-09-22T23:04:55.045Z,95497.47
2022-09-22T23:07:23.304Z,95490.91
2022-09-22T23:10:06.357Z,95499.41
2022-09-22T23:12:40.308Z,95502.41
2022-09-22T23:15:10.840Z,95495.25
2022-09-22T23:17:39.502Z,95503.47
2022-09-22T23:20:09.110Z,95506.50
2022-09-22T23:22:37.332Z,95505.78
2022-09-22T23:25:06.233Z,95489.22
2022-09-22T23:27:35.923Z,95493.06
2022-09-22T23:30:04.348Z,95471.91
2022-09-22T23:32:32.568Z,95482.22
2022-09-22T23:35:00.775Z,95484.28
2022-09-22T23:37:29.026Z,95493.22
2022-09-22T23:39:57.257Z,95483.59
2022-09-22T23:42:25.592Z,95503.88
2022-09-22T23:44:55.137Z,95485.34
2022-09-22T23:47:23.437Z,95483.31
2022-09-22T23:49:51.660Z,95477.19
2022-09-22T23:52:21.735Z,95475.03
2022-09-22T23:54:50.037Z,95469.72
2022-09-22T23:57:18.251Z,95479.84
2022-09-22T23:59:46.613Z,95479.94
